Ana Sayfa
METAR-TAF:

METAR-TAF

Havaalanları :

Blue River, İngiliz Kolombiyası, Kanada

Enlem: 52-08N, Boylam: 119-18W, yükseklik: 679 m

Güncel hava durumu gözlemi

Rapor saat 00:00 UTC de 3 saat ve 18 dakika önce yapıldı.
Sakin rüzgar
Sıcaklık 2°C
Nem 100%
Basınç 1023 hPa
Görüş mesafesi: 4.8 km
300 ft yükseklikte parçalı bulutlu
2000 ft yükseklikte çok bulutlu
hafif yağmur, Pus

METAR: CYCP 280000Z 00000KT 3SM -RA BR SCT003 OVC020 02/02 A3021 RMK SF3SC5 LAST STFD OBS/NEXT 281400Z SLP262

Saat: 19:18 (03:18 UTC)


TAF: eksik

4.000'den fazla havaalanı için hava durumu gözlemleri ve tahminleri (METAR ve TAF raporları).

Kullanılabilir istasyonlar harita üzerinde sarı ve kırmızı noktalarla gösterilir.

İstasyonun adını görmek için fareyi noktanın üzerinde gezdirin.

Sonrasında hava gözlem ve tahminlerini görmek için tıklayın.

Haritayı değiştirmek için: yaklaştırmak için siyah artı işaretli yeşil düğmeye ve uzaklaştırmak için de eksi işaretli düğmeye hızla tıklayın; bitişik haritalar için yeşil okları kullanın.


METAR-TAF: